Time;durP1;ratioP1;P1;durP2;ratioP2;P2;SDS_P1;SDS_P2;PMS_P1;PMS_P2;Temp;Humidity;BMP_temperature;BMP_pressure;BME280_temperature;BME280_humidity;BME280_pressure;Samples;Min_cycle;Max_cycle;Signal;HPM_P1;HPM_P2
2022/01/19 00:00:08;;;;;;;30.95;12.90;;;;;;;-0.54;54.68;96245.09;4917734;29;20629;-82
2022/01/19 00:02:33;;;;;;;39.58;15.60;;;;;;;-0.64;54.82;96256.09;4934177;29;20032;-81
2022/01/19 00:04:59;;;;;;;31.98;14.50;;;;;;;-0.61;54.67;96253.28;4917920;29;20439;-80
2022/01/19 00:07:24;;;;;;;25.55;12.23;;;;;;;-0.58;54.20;96259.06;4918377;29;20035;-81
2022/01/19 00:09:49;;;;;;;36.58;13.10;;;;;;;-0.61;54.80;96260.94;4917379;29;20072;-79
2022/01/19 00:12:15;;;;;;;32.03;12.52;;;;;;;-0.56;54.65;96262.31;4918690;29;20028;-79
2022/01/19 00:14:40;;;;;;;38.85;14.60;;;;;;;-0.53;54.55;96272.28;4917575;29;20057;-81
2022/01/19 00:17:06;;;;;;;43.67;15.15;;;;;;;-0.55;54.49;96276.69;4932423;29;20507;-81
2022/01/19 00:19:31;;;;;;;24.98;11.38;;;;;;;-0.53;54.04;96272.28;4933958;29;20501;-81
2022/01/19 00:21:57;;;;;;;31.27;12.48;;;;;;;-0.56;54.28;96275.88;4918857;29;20107;-81
2022/01/19 00:24:22;;;;;;;35.13;14.43;;;;;;;-0.61;54.21;96281.38;4917696;29;20040;-81
2022/01/19 00:26:48;;;;;;;39.30;14.20;;;;;;;-0.76;54.70;96285.19;4917681;29;20048;-80
2022/01/19 00:29:13;;;;;;;26.48;13.55;;;;;;;-0.76;54.73;96287.75;4933084;29;20035;-80
2022/01/19 00:31:39;;;;;;;42.00;15.27;;;;;;;-0.70;54.78;96294.09;4917962;29;20040;-81
2022/01/19 00:34:04;;;;;;;33.60;13.98;;;;;;;-0.65;54.39;96303.03;4917391;29;20028;-81
2022/01/19 00:36:30;;;;;;;38.25;12.40;;;;;;;-0.76;54.67;96297.97;4901141;29;20047;-80
2022/01/19 00:38:55;;;;;;;41.22;17.38;;;;;;;-0.70;54.97;96301.75;4916866;29;20020;-80
2022/01/19 00:41:21;;;;;;;31.30;13.75;;;;;;;-0.74;54.99;96303.75;4932891;29;20477;-80
2022/01/19 00:43:46;;;;;;;37.22;14.23;;;;;;;-0.68;54.71;96299.88;4933610;29;20036;-81
2022/01/19 00:46:12;;;;;;;38.40;15.57;;;;;;;-0.68;54.29;96305.81;4917001;29;20039;-81
2022/01/19 00:48:40;;;;;;;29.42;14.57;;;;;;;-0.65;54.66;96304.78;4916154;29;20040;-80
2022/01/19 00:51:08;;;;;;;39.45;15.25;;;;;;;-0.66;54.74;96303.94;4916185;29;20223;-80
2022/01/19 00:53:36;;;;;;;35.38;13.40;;;;;;;-0.62;54.53;96319.84;4916862;29;20047;-80
2022/01/19 00:56:02;;;;;;;43.22;13.65;;;;;;;-0.56;54.75;96318.50;4916645;29;20051;-80
2022/01/19 00:58:27;;;;;;;31.45;13.73;;;;;;;-0.61;54.42;96327.38;4919081;29;20044;-80
2022/01/19 01:00:53;;;;;;;36.80;11.82;;;;;;;-0.57;54.31;96327.13;4918393;29;20024;-80
2022/01/19 01:03:20;;;;;;;19.38;9.20;;;;;;;-0.53;54.65;96319.06;4901778;29;20044;-80
2022/01/19 01:05:46;;;;;;;28.05;11.15;;;;;;;-0.55;54.19;96331.16;4918308;29;20040;-80
2022/01/19 01:08:12;;;;;;;24.13;10.65;;;;;;;-0.52;54.08;96322.44;4933841;29;20051;-81
2022/01/19 01:10:42;;;;;;;19.65;9.57;;;;;;;-0.53;54.23;96339.50;4933797;29;20067;-81
2022/01/19 01:13:29;;;;;;;24.83;11.07;;;;;;;-0.73;54.84;96335.22;4917318;29;20040;-81
2022/01/19 01:16:04;;;;;;;26.08;11.40;;;;;;;-0.73;55.33;96338.59;4916875;29;20624;-81
2022/01/19 01:18:30;;;;;;;29.02;12.07;;;;;;;-0.73;54.92;96325.81;4932221;29;20044;-81
2022/01/19 01:20:57;;;;;;;32.33;12.30;;;;;;;-0.68;54.78;96323.69;4917028;29;20024;-81
2022/01/19 01:23:24;;;;;;;35.47;12.10;;;;;;;-0.68;54.34;96318.56;4917170;29;20028;-81
2022/01/19 01:25:49;;;;;;;24.75;10.68;;;;;;;-0.68;55.35;96317.75;4916770;29;20060;-81
2022/01/19 01:28:15;;;;;;;24.17;11.75;;;;;;;-0.73;54.76;96313.03;4917109;29;20036;-80
2022/01/19 01:30:40;;;;;;;36.58;12.45;;;;;;;-0.67;54.64;96301.50;4893512;29;20032;-82
2022/01/19 01:33:06;;;;;;;26.98;10.20;;;;;;;-0.68;54.96;96294.78;4916984;29;20066;-80
2022/01/19 01:35:32;;;;;;;29.05;11.75;;;;;;;-0.68;54.86;96305.81;4917011;29;20155;-81
2022/01/19 01:37:57;;;;;;;18.88;9.48;;;;;;;-0.64;54.28;96302.09;4931742;29;20051;-81
2022/01/19 01:40:25;;;;;;;21.58;9.13;;;;;;;-0.65;54.71;96305.56;4900130;29;20036;-81
2022/01/19 01:42:52;;;;;;;18.77;9.73;;;;;;;-0.64;54.42;96307.19;4916094;29;20488;-81
2022/01/19 01:45:23;;;;;;;20.15;8.52;;;;;;;-0.74;54.92;96301.22;4900376;29;20032;-81
2022/01/19 01:53:26;;;;;;;16.65;8.23;;;;;;;-0.93;55.09;96280.66;4938691;29;20073;-81
2022/01/19 01:56:00;;;;;;;21.40;8.25;;;;;;;-0.87;55.21;96275.03;4947025;29;20483;-81
2022/01/19 01:58:27;;;;;;;19.33;8.50;;;;;;;-0.95;55.15;96279.97;4929672;29;20042;-80
2022/01/19 02:00:53;;;;;;;15.50;6.97;;;;;;;-0.98;55.43;96273.38;4910983;29;20511;-81
2022/01/19 02:03:18;;;;;;;24.50;7.40;;;;;;;-1.03;55.47;96269.56;4915004;29;20039;-81
2022/01/19 02:08:43;;;;;;;17.05;8.15;;;;;;;-1.10;55.45;96258.25;4907074;29;20405;-81
2022/01/19 02:21:57;;;;;;;26.88;9.98;;;;;;;-1.18;55.69;96247.84;4932947;29;20423;-80
2022/01/19 02:24:23;;;;;;;18.45;8.50;;;;;;;-1.15;55.66;96250.13;4944524;29;20031;-80
2022/01/19 02:40:35;;;;;;;14.32;7.28;;;;;;;-1.13;55.57;96253.41;4946605;29;20042;-80
2022/01/19 02:50:58;;;;;;;15.40;7.82;;;;;;;-1.10;54.91;96248.03;4931908;29;20071;-81
2022/01/19 02:53:23;;;;;;;18.70;8.30;;;;;;;-1.17;54.99;96241.78;4916351;29;20035;-80
2022/01/19 02:55:49;;;;;;;19.90;8.95;;;;;;;-1.13;55.20;96243.19;4936968;29;20098;-81
2022/01/19 02:58:56;;;;;;;22.63;10.05;;;;;;;-1.12;55.00;96249.91;4951792;29;20050;-79
2022/01/19 03:09:22;;;;;;;25.60;9.07;;;;;;;-1.19;55.14;96251.31;4927009;29;20129;-80
2022/01/19 03:11:47;;;;;;;17.45;9.18;;;;;;;-1.23;55.03;96243.91;4942033;29;20031;-79
2022/01/19 03:14:13;;;;;;;22.88;10.30;;;;;;;-1.25;55.22;96247.53;4944781;29;20039;-79
2022/01/19 03:16:38;;;;;;;30.63;12.90;;;;;;;-1.20;55.43;96250.50;4915232;29;20031;-79
2022/01/19 03:19:06;;;;;;;24.67;12.48;;;;;;;-1.34;55.38;96241.41;4899990;29;20039;-80
2022/01/19 03:21:32;;;;;;;25.40;11.38;;;;;;;-1.40;55.73;96238.56;4916295;29;20143;-80
2022/01/19 03:23:58;;;;;;;27.88;13.35;;;;;;;-1.43;56.09;96244.72;4914404;29;20063;-80
2022/01/19 03:26:23;;;;;;;32.03;13.15;;;;;;;-1.39;55.78;96246.09;4947421;29;20039;-79
2022/01/19 03:28:51;;;;;;;36.63;15.93;;;;;;;-1.34;55.65;96251.63;4930376;29;20071;-80
2022/01/19 03:31:16;;;;;;;46.53;16.17;;;;;;;-1.25;55.29;96245.78;4930678;29;20032;-80
2022/01/19 03:33:43;;;;;;;27.40;12.88;;;;;;;-1.24;55.44;96249.16;4915068;29;20110;-80
2022/01/19 03:36:09;;;;;;;24.70;12.88;;;;;;;-1.18;55.23;96260.59;4897723;29;20073;-81
2022/01/19 03:38:34;;;;;;;21.23;9.73;;;;;;;-1.18;54.69;96263.97;4949081;29;20036;-81
2022/01/19 03:41:00;;;;;;;21.25;10.98;;;;;;;-1.14;55.05;96269.63;4948315;29;20460;-81
2022/01/19 03:43:25;;;;;;;32.97;13.68;;;;;;;-1.12;55.33;96275.44;4902016;29;20031;-82
2022/01/19 03:45:53;;;;;;;31.63;14.13;;;;;;;-1.19;54.84;96264.09;4914685;29;20038;-79
2022/01/19 03:50:54;;;;;;;35.63;14.07;;;;;;;-1.05;54.65;96263.78;4916682;29;20449;-80
2022/01/19 03:53:19;;;;;;;40.35;14.80;;;;;;;-0.99;54.37;96263.28;4931865;29;20043;-80
2022/01/19 03:55:45;;;;;;;22.10;10.82;;;;;;;-0.94;54.12;96256.88;4948906;29;20422;-80
2022/01/19 03:58:11;;;;;;;29.80;12.07;;;;;;;-0.90;53.91;96259.97;4917013;29;20067;-80
2022/01/19 04:00:41;;;;;;;41.25;14.48;;;;;;;-0.84;54.13;96262.03;4933700;29;20494;-80
2022/01/19 04:03:09;;;;;;;46.78;14.07;;;;;;;-0.95;53.62;96254.44;4901226;29;20039;-81
2022/01/19 04:05:54;;;;;;;37.90;12.10;;;;;;;-0.95;53.60;96262.13;4902805;29;20040;-82
2022/01/19 04:08:19;;;;;;;33.58;13.68;;;;;;;-1.03;53.80;96256.81;4940428;29;20105;-81
2022/01/19 04:10:45;;;;;;;25.83;9.27;;;;;;;-1.00;54.05;96264.22;4896998;29;20027;-79
2022/01/19 04:13:44;;;;;;;25.65;11.18;;;;;;;-1.03;54.03;96261.91;4914590;29;20065;-79
2022/01/19 04:15:56;;;;;;;23.23;11.13;;;;;;;-1.07;54.33;96273.31;4933618;29;20070;-79
2022/01/19 04:18:21;;;;;;;20.85;9.93;;;;;;;-1.06;54.15;96277.47;4930915;29;20040;-79
2022/01/19 04:20:50;;;;;;;25.02;10.13;;;;;;;-1.01;53.62;96283.00;4915604;29;20036;-79
2022/01/19 04:23:16;;;;;;;27.40;12.93;;;;;;;-1.09;53.77;96281.09;4945107;29;20032;-79
2022/01/19 04:25:42;;;;;;;24.25;11.68;;;;;;;-1.11;54.06;96287.25;4946755;29;20043;-79
2022/01/19 04:28:08;;;;;;;40.95;16.27;;;;;;;-0.98;53.97;96292.97;4929499;29;20035;-79
2022/01/19 04:30:37;;;;;;;40.85;17.55;;;;;;;-0.97;54.27;96289.50;4930624;29;20475;-78
2022/01/19 04:33:09;;;;;;;39.55;14.77;;;;;;;-0.89;54.16;96293.97;4948098;29;20036;-79
2022/01/19 04:35:44;;;;;;;;;;;;;;;-0.88;53.53;96306.63;4932247;29;20054;-79
2022/01/19 05:02:54;;;;;;;25.38;13.88;;;;;;;-0.72;52.82;96318.97;4932818;29;20118;-79
2022/01/19 05:05:21;;;;;;;29.00;14.65;;;;;;;-0.78;52.75;96312.63;4916163;29;20576;-79
2022/01/19 05:15:45;;;;;;;16.75;9.23;;;;;;;-0.66;52.75;96319.25;4914662;29;20038;-79
2022/01/19 05:18:12;;;;;;;19.75;8.18;;;;;;;-0.72;52.71;96318.97;4946173;29;20035;-83
2022/01/19 05:20:41;;;;;;;20.30;9.88;;;;;;;-0.67;52.34;96322.75;4928964;29;20031;-78
2022/01/19 05:23:06;;;;;;;26.85;11.73;;;;;;;-0.82;52.37;96329.09;4929048;29;20408;-79
2022/01/19 05:25:32;;;;;;;36.40;16.67;;;;;;;-0.78;52.64;96333.03;4949204;29;20046;-77
2022/01/19 05:28:00;;;;;;;32.13;16.27;;;;;;;-0.85;52.79;96339.56;4962761;28;20066;-79
2022/01/19 05:30:25;;;;;;;36.72;15.27;;;;;;;-0.85;53.48;96341.31;4963068;29;20023;-79
2022/01/19 05:32:51;;;;;;;36.30;17.63;;;;;;;-0.84;53.00;96340.38;4958704;29;20042;-78
2022/01/19 05:35:17;;;;;;;31.77;15.82;;;;;;;-0.84;52.91;96346.28;4916291;29;20086;-79
2022/01/19 05:37:42;;;;;;;32.38;15.70;;;;;;;-0.89;52.81;96343.31;4896949;29;20035;-79
2022/01/19 05:40:11;;;;;;;34.25;17.60;;;;;;;-0.84;53.05;96348.84;4936902;29;20062;-79
2022/01/19 05:42:37;;;;;;;34.97;17.38;;;;;;;-0.87;53.17;96351.66;4945276;29;20110;-79
2022/01/19 05:45:03;;;;;;;38.38;16.35;;;;;;;-0.94;53.40;96348.78;4929978;29;20031;-80
2022/01/19 05:47:29;;;;;;;34.70;16.77;;;;;;;-0.97;53.75;96358.44;4923658;29;20109;-77
2022/01/19 05:49:54;;;;;;;33.65;18.05;;;;;;;-0.89;53.58;96366.28;4922338;29;20495;-77
2022/01/19 05:52:22;;;;;;;42.53;21.40;;;;;;;-0.86;53.67;96368.59;4940327;29;20114;-77
2022/01/19 05:54:47;;;;;;;39.53;19.73;;;;;;;-0.88;53.76;96370.47;4909774;29;20434;-77
2022/01/19 05:57:20;;;;;;;23.75;13.32;;;;;;;-0.86;54.39;96375.44;4907169;29;20027;-77
2022/01/19 05:59:46;;;;;;;25.52;12.60;;;;;;;-0.87;54.59;96377.19;4925244;29;20035;-77
2022/01/19 06:02:12;;;;;;;30.60;14.65;;;;;;;-0.82;54.92;96380.19;4939337;29;20024;-78
2022/01/19 06:04:37;;;;;;;51.80;20.77;;;;;;;-0.73;54.61;96389.66;4924238;29;20039;-77
2022/01/19 06:07:03;;;;;;;41.00;19.70;;;;;;;-0.87;54.94;96379.75;4941134;29;20036;-77
2022/01/19 06:09:37;;;;;;;37.50;17.52;;;;;;;-0.84;54.85;96381.22;4924021;29;20047;-76
2022/01/19 06:12:05;;;;;;;31.85;14.98;;;;;;;-0.80;54.94;96382.63;4940837;29;20525;-77
2022/01/19 06:14:32;;;;;;;24.92;12.13;;;;;;;-0.75;55.26;96380.50;4908168;29;20039;-77
2022/01/19 06:16:57;;;;;;;17.02;9.90;;;;;;;-0.70;55.39;96381.75;4923964;29;20031;-77
2022/01/19 06:19:23;;;;;;;34.15;16.77;;;;;;;-0.61;55.24;96383.56;4923240;29;20126;-77
2022/01/19 06:21:48;;;;;;;43.38;14.65;;;;;;;-0.46;55.10;96396.84;4909053;29;20040;-77
2022/01/19 06:24:14;;;;;;;29.50;15.63;;;;;;;-0.34;54.94;96395.03;4908053;29;20050;-77
2022/01/19 06:26:39;;;;;;;30.27;12.95;;;;;;;-0.24;54.29;96393.34;4892389;29;20027;-77
2022/01/19 06:29:05;;;;;;;38.03;16.95;;;;;;;-0.14;54.35;96401.88;4907660;29;20030;-77
2022/01/19 06:31:31;;;;;;;39.30;20.92;;;;;;;-0.01;54.15;96397.34;4923682;29;20036;-77
2022/01/19 06:33:56;;;;;;;49.13;21.63;;;;;;;0.16;53.73;96392.56;4922602;29;20454;-77
2022/01/19 06:36:21;;;;;;;39.88;19.00;;;;;;;0.36;52.74;96394.28;4923139;29;20031;-77
2022/01/19 06:38:47;;;;;;;34.80;15.88;;;;;;;0.47;52.88;96406.16;4923059;29;20043;-77
2022/01/19 06:41:15;;;;;;;50.65;22.55;;;;;;;0.83;52.10;96397.09;4923265;29;20480;-77
2022/01/19 06:43:41;;;;;;;43.03;18.05;;;;;;;1.09;50.95;96387.13;4907638;29;20031;-77
2022/01/19 06:46:06;;;;;;;32.90;14.60;;;;;;;1.35;50.55;96392.53;4923462;29;20072;-77
2022/01/19 06:48:32;;;;;;;29.33;14.25;;;;;;;1.63;49.98;96396.84;4906354;29;20098;-77
2022/01/19 06:51:00;;;;;;;24.98;10.77;;;;;;;1.80;49.76;96396.13;4911782;29;20051;-77
2022/01/19 06:53:26;;;;;;;29.88;13.45;;;;;;;2.05;48.74;96399.00;4911436;29;20063;-77
2022/01/19 06:55:57;;;;;;;25.67;12.48;;;;;;;2.11;48.65;96401.00;4926695;29;20043;-77
2022/01/19 06:58:26;;;;;;;34.58;16.45;;;;;;;2.05;48.74;96396.44;4942501;29;20035;-77
2022/01/19 07:00:51;;;;;;;29.63;15.82;;;;;;;2.09;48.86;96392.66;4927030;29;20094;-77
2022/01/19 07:03:17;;;;;;;37.38;16.95;;;;;;;2.15;49.08;96392.09;4896704;29;20031;-78
2022/01/19 07:05:42;;;;;;;42.38;16.35;;;;;;;2.29;48.64;96390.84;4913521;29;20034;-77
2022/01/19 07:08:08;;;;;;;41.40;16.48;;;;;;;2.30;48.95;96390.69;4910598;29;20585;-77
2022/01/19 07:10:33;;;;;;;42.38;15.48;;;;;;;2.38;48.85;96387.41;4911479;29;20031;-77
2022/01/19 07:13:00;;;;;;;34.50;15.52;;;;;;;2.30;49.41;96387.31;4926376;29;20050;-77
2022/01/19 07:15:25;;;;;;;27.88;13.52;;;;;;;2.35;49.36;96382.56;4910464;29;20074;-77
2022/01/19 07:17:50;;;;;;;29.23;13.07;;;;;;;2.42;48.93;96381.03;4926618;29;20039;-77
2022/01/19 07:20:36;;;;;;;28.02;13.98;;;;;;;2.39;48.79;96364.16;4943935;29;20031;-77
2022/01/19 07:23:02;;;;;;;23.65;11.18;;;;;;;2.44;49.14;96356.03;4913739;29;20048;-77
2022/01/19 07:25:28;;;;;;;26.00;12.50;;;;;;;2.47;48.55;96360.06;4915834;29;20072;-77
2022/01/19 07:27:54;;;;;;;15.63;9.00;;;;;;;2.52;48.22;96363.00;4898150;29;20024;-77
2022/01/19 07:30:19;;;;;;;18.85;9.48;;;;;;;2.55;48.73;96363.53;4915515;29;20039;-78
2022/01/19 07:32:48;;;;;;;25.75;9.95;;;;;;;2.61;48.25;96368.09;4913639;29;20095;-77
2022/01/19 07:35:14;;;;;;;27.85;11.90;;;;;;;2.65;48.13;96359.16;4914227;29;20040;-77
2022/01/19 07:37:40;;;;;;;27.75;11.07;;;;;;;2.73;47.44;96366.13;4913540;29;20115;-77
2022/01/19 07:40:06;;;;;;;32.53;15.30;;;;;;;2.84;47.80;96368.50;4898069;29;20044;-77
2022/01/19 07:42:32;;;;;;;19.38;9.48;;;;;;;2.92;47.20;96354.91;4898137;29;20044;-77
2022/01/19 07:44:58;;;;;;;27.42;11.90;;;;;;;2.96;47.00;96357.06;4913762;29;20044;-77
2022/01/19 07:47:23;;;;;;;22.13;9.25;;;;;;;3.01;46.98;96359.19;4898121;29;20487;-77
2022/01/19 07:49:49;;;;;;;37.38;14.10;;;;;;;3.08;46.94;96356.81;4915220;29;20036;-77
2022/01/19 07:52:14;;;;;;;21.58;9.43;;;;;;;3.00;46.87;96355.81;4914761;29;20639;-77
2022/01/19 07:54:39;;;;;;;20.83;8.60;;;;;;;2.88;46.70;96359.53;4915135;29;20036;-77
2022/01/19 07:57:05;;;;;;;16.88;8.32;;;;;;;2.77;47.62;96361.53;4898239;29;20100;-77
2022/01/19 07:59:31;;;;;;;16.67;8.75;;;;;;;2.68;47.94;96364.00;4897706;29;20032;-77
2022/01/19 08:01:57;;;;;;;14.60;7.65;;;;;;;2.64;47.79;96360.13;4905856;29;20040;-77
2022/01/19 08:04:22;;;;;;;18.52;8.23;;;;;;;2.49;48.04;96365.88;4897691;29;20128;-77
2022/01/19 08:06:53;;;;;;;21.95;11.55;;;;;;;2.40;48.25;96360.63;4896884;29;20400;-77
2022/01/19 08:09:22;;;;;;;18.33;7.45;;;;;;;2.23;48.94;96363.97;4896877;29;20426;-77
2022/01/19 08:11:48;;;;;;;14.80;7.65;;;;;;;2.21;48.83;96360.72;4889651;29;20072;-77
2022/01/19 08:14:13;;;;;;;17.00;7.78;;;;;;;2.13;49.73;96363.22;4897376;29;20127;-77
2022/01/19 08:16:39;;;;;;;24.60;9.65;;;;;;;2.18;49.79;96361.03;4897527;29;20036;-77
2022/01/19 08:19:05;;;;;;;32.10;14.38;;;;;;;2.25;49.69;96367.19;4914578;29;20048;-77
2022/01/19 08:21:30;;;;;;;52.38;21.50;;;;;;;2.44;49.06;96357.78;4896946;29;20484;-77
2022/01/19 08:23:56;;;;;;;17.83;9.00;;;;;;;2.53;47.45;96359.50;4897091;29;20028;-77
2022/01/19 08:26:21;;;;;;;35.85;14.73;;;;;;;2.60;47.37;96355.38;4896941;29;20040;-77
2022/01/19 08:28:47;;;;;;;28.88;11.23;;;;;;;2.57;47.21;96360.81;4912749;29;20039;-76
2022/01/19 08:31:12;;;;;;;29.83;13.05;;;;;;;2.50;47.35;96359.78;4896477;29;20035;-76
2022/01/19 08:33:38;;;;;;;27.48;11.77;;;;;;;2.44;47.34;96353.47;4896004;29;20024;-76
2022/01/19 08:36:03;;;;;;;22.55;8.02;;;;;;;2.41;47.15;96357.13;4912031;29;20650;-76
2022/01/19 08:38:29;;;;;;;17.05;8.38;;;;;;;2.36;47.43;96364.44;4896080;29;20532;-76
2022/01/19 08:40:54;;;;;;;24.92;11.20;;;;;;;2.34;47.81;96362.97;4912745;29;20033;-76
2022/01/19 08:43:20;;;;;;;26.80;9.23;;;;;;;2.22;47.64;96364.91;4911705;29;20416;-76
2022/01/19 08:45:45;;;;;;;27.17;11.93;;;;;;;2.17;47.94;96354.28;4897310;29;20496;-77
2022/01/19 08:48:10;;;;;;;29.20;13.85;;;;;;;2.12;48.33;96340.25;4889282;29;20044;-76
2022/01/19 08:50:36;;;;;;;21.25;10.15;;;;;;;1.99;48.60;96340.56;4896352;29;20051;-76
2022/01/19 08:53:02;;;;;;;17.38;8.40;;;;;;;1.97;48.40;96342.47;4913978;29;20036;-76
2022/01/19 08:55:27;;;;;;;31.20;14.13;;;;;;;2.03;48.15;96352.16;4912728;29;20039;-76
2022/01/19 08:57:53;;;;;;;17.35;9.07;;;;;;;2.17;47.85;96349.13;4912543;29;20044;-76
2022/01/19 09:00:18;;;;;;;24.58;8.45;;;;;;;2.36;47.36;96341.34;4896518;29;20029;-76
2022/01/19 09:02:44;;;;;;;15.23;8.68;;;;;;;2.51;46.72;96338.28;4914159;29;20548;-77
2022/01/19 09:05:09;;;;;;;24.98;9.55;;;;;;;2.61;46.11;96346.75;4880475;29;20039;-76
2022/01/19 09:07:38;;;;;;;36.97;17.77;;;;;;;2.71;45.63;96342.34;4895661;29;20040;-76
2022/01/19 09:10:05;;;;;;;31.05;12.95;;;;;;;2.85;45.92;96343.59;4911903;29;20035;-77
2022/01/19 09:12:30;;;;;;;22.15;9.80;;;;;;;2.92;45.50;96344.63;4894934;29;20059;-77
2022/01/19 09:14:57;;;;;;;20.45;9.82;;;;;;;2.99;44.93;96325.91;4911570;29;20032;-77
2022/01/19 09:17:23;;;;;;;20.15;8.05;;;;;;;3.08;44.55;96323.41;4896486;29;20054;-76
2022/01/19 09:19:48;;;;;;;19.13;6.93;;;;;;;2.86;44.27;96312.63;4904229;29;20043;-76
2022/01/19 09:22:14;;;;;;;15.18;7.13;;;;;;;2.65;44.63;96330.09;4911800;29;20047;-77
2022/01/19 09:24:40;;;;;;;19.25;7.50;;;;;;;2.60;45.35;96330.53;4902608;29;20036;-76
2022/01/19 09:27:08;;;;;;;14.07;7.60;;;;;;;2.38;45.51;96320.66;4894754;29;20095;-77
2022/01/19 09:29:33;;;;;;;12.60;6.90;;;;;;;2.21;46.56;96319.66;4893964;29;20040;-76
2022/01/19 09:32:01;;;;;;;14.43;6.88;;;;;;;2.08;46.28;96308.91;4913183;29;20545;-78
2022/01/19 09:34:27;;;;;;;14.32;6.43;;;;;;;2.05;46.55;96299.75;4895680;29;20040;-75
2022/01/19 09:36:53;;;;;;;14.95;6.35;;;;;;;2.03;46.63;96300.84;4903392;29;20040;-75
2022/01/19 09:39:23;;;;;;;18.50;6.90;;;;;;;2.10;46.46;96307.03;4902420;29;20727;-76
2022/01/19 09:41:51;;;;;;;10.38;6.10;;;;;;;2.10;46.42;96304.44;4910475;29;20028;-76
2022/01/19 09:44:22;;;;;;;13.60;6.45;;;;;;;2.01;46.56;96301.00;4907791;29;20028;-76
2022/01/19 09:46:48;;;;;;;14.13;6.18;;;;;;;2.00;46.74;96298.56;4909631;29;20028;-75
2022/01/19 09:49:15;;;;;;;22.10;6.57;;;;;;;1.93;47.07;96284.69;4908818;29;20051;-76
2022/01/19 09:51:41;;;;;;;10.63;6.10;;;;;;;1.90;46.64;96297.81;4900705;29;20099;-76
2022/01/19 09:54:06;;;;;;;14.55;6.28;;;;;;;1.76;47.38;96286.25;4892629;29;20036;-77
2022/01/19 09:56:32;;;;;;;14.63;6.10;;;;;;;1.88;47.30;96297.13;4896206;29;20036;-79
2022/01/19 09:58:58;;;;;;;13.68;6.82;;;;;;;2.03;47.07;96291.41;4908989;29;20048;-79
2022/01/19 10:01:25;;;;;;;17.40;6.50;;;;;;;1.91;46.84;96286.59;4912124;29;20638;-78
2022/01/19 10:03:50;;;;;;;16.67;7.10;;;;;;;1.73;47.74;96289.09;4911146;29;20036;-80
2022/01/19 10:06:22;;;;;;;11.52;6.20;;;;;;;1.78;48.00;96277.44;4915768;29;20035;-79
2022/01/19 10:08:54;;;;;;;14.10;6.78;;;;;;;1.89;47.35;96265.41;4900131;29;20111;-79
2022/01/19 10:16:58;;;;;;;11.50;6.03;;;;;;;2.04;47.56;96269.91;4915738;29;20119;-79
2022/01/19 10:17:03;;;;;;;15.43;7.97;;;;;;;2.29;46.80;96276.16;4917578;29;20043;-79
2022/01/19 10:19:49;;;;;;;16.13;9.07;;;;;;;2.37;46.94;96263.38;4918022;29;20040;-79
2022/01/19 10:22:18;;;;;;;10.73;6.28;;;;;;;2.25;46.13;96256.81;4900382;29;20032;-79
2022/01/19 10:25:02;;;;;;;15.80;6.05;;;;;;;2.20;46.70;96248.75;4918904;29;20040;-79
2022/01/19 10:27:45;;;;;;;22.17;7.88;;;;;;;2.19;47.10;96262.56;4903493;29;20036;-79
2022/01/19 10:30:25;;;;;;;17.30;6.47;;;;;;;2.19;47.47;96252.28;4918742;29;20047;-79
2022/01/19 10:32:55;;;;;;;13.20;7.03;;;;;;;2.29;47.14;96245.34;4918263;29;20501;-79
2022/01/19 10:35:29;;;;;;;11.60;5.93;;;;;;;2.37;46.28;96247.97;4919118;29;20043;-79
2022/01/19 10:38:15;;;;;;;20.45;8.90;;;;;;;2.40;46.79;96255.38;4920679;29;20047;-79
2022/01/19 10:41:07;;;;;;;21.00;6.82;;;;;;;2.54;46.37;96245.56;4919226;29;20051;-79
2022/01/19 10:43:42;;;;;;;18.08;6.25;;;;;;;2.53;46.15;96249.09;4899446;29;20571;-79
2022/01/19 10:46:31;;;;;;;11.85;6.10;;;;;;;2.51;45.97;96236.41;4904330;29;20087;-79
2022/01/19 10:48:58;;;;;;;20.17;6.70;;;;;;;2.49;46.48;96225.47;4921219;29;20056;-80
2022/01/19 10:51:23;;;;;;;23.15;8.82;;;;;;;2.54;46.57;96222.44;4920059;29;20060;-79
2022/01/19 10:54:15;;;;;;;13.68;6.78;;;;;;;2.52;46.74;96203.81;4920846;29;20520;-79
2022/01/19 10:56:41;;;;;;;29.35;7.38;;;;;;;2.53;46.38;96200.31;4918875;29;20044;-80
2022/01/19 10:59:12;;;;;;;22.02;7.40;;;;;;;2.46;47.14;96205.22;4902764;29;20119;-80
2022/01/19 11:01:38;;;;;;;13.70;6.82;;;;;;;2.49;46.84;96196.44;4901862;29;20733;-80
2022/01/19 11:04:34;;;;;;;15.13;7.15;;;;;;;2.43;47.21;96190.09;4916157;29;20032;-80
2022/01/19 11:07:07;;;;;;;14.32;7.32;;;;;;;2.50;47.42;96190.34;4887865;29;20397;-80
2022/01/19 11:09:35;;;;;;;15.85;7.72;;;;;;;2.60;46.87;96188.47;4888107;29;20127;-79
2022/01/19 11:12:08;;;;;;;21.90;6.38;;;;;;;2.58;46.40;96173.22;4913388;29;20039;-77
2022/01/19 11:14:35;;;;;;;9.68;6.68;;;;;;;2.60;46.75;96180.75;4903574;29;20020;-78
2022/01/19 11:17:01;;;;;;;27.50;9.25;;;;;;;2.62;46.61;96163.47;4940711;29;20047;-79
2022/01/19 11:19:29;;;;;;;32.15;11.18;;;;;;;2.67;46.67;96169.78;4925566;29;20040;-79
2022/01/19 11:22:05;;;;;;;26.35;10.60;;;;;;;2.72;47.11;96164.19;4902918;29;20032;-80
2022/01/19 11:24:49;;;;;;;11.98;7.38;;;;;;;2.83;46.41;96156.22;4919145;29;20519;-79
2022/01/19 11:27:17;;;;;;;20.25;7.38;;;;;;;2.80;45.88;96161.69;4918434;29;20028;-79
2022/01/19 11:29:43;;;;;;;16.67;6.72;;;;;;;2.68;45.73;96158.53;4901418;29;20044;-80
2022/01/19 11:32:18;;;;;;;17.05;7.05;;;;;;;2.67;45.95;96153.56;4901650;29;20558;-80
2022/01/19 11:34:53;;;;;;;17.92;6.55;;;;;;;2.65;46.04;96158.03;4901091;29;20032;-80
2022/01/19 11:37:37;;;;;;;17.95;7.40;;;;;;;2.59;46.30;96158.63;5040580;23;20051;-77
2022/01/19 11:40:08;;;;;;;11.65;6.85;;;;;;;2.61;46.45;96160.09;4901338;29;20505;-79
2022/01/19 11:42:33;;;;;;;14.98;6.35;;;;;;;2.64;46.22;96151.28;4897116;29;20425;-79
2022/01/19 11:44:59;;;;;;;15.02;6.50;;;;;;;2.64;46.10;96130.75;4898847;29;20040;-81
2022/01/19 11:47:29;;;;;;;11.35;6.38;;;;;;;2.63;46.32;96134.28;4883709;29;20470;-78
2022/01/19 11:50:00;;;;;;;13.00;6.68;;;;;;;2.65;46.11;96146.00;4890226;29;20044;-78
2022/01/19 11:52:33;;;;;;;17.08;6.40;;;;;;;2.57;46.17;96129.72;4898610;29;20033;-79
2022/01/19 11:55:20;;;;;;;14.55;7.38;;;;;;;2.50;46.25;96129.53;4900958;29;20112;-80
2022/01/19 11:57:47;;;;;;;12.95;8.02;;;;;;;2.46;47.12;96128.22;4958800;23;20043;-79
2022/01/19 12:00:17;;;;;;;16.23;7.07;;;;;;;2.52;46.82;96127.59;4948104;29;20089;-79
2022/01/19 12:02:45;;;;;;;19.60;7.38;;;;;;;2.54;47.04;96119.75;4947967;29;20038;-78
2022/01/19 12:05:10;;;;;;;15.50;8.15;;;;;;;2.62;47.08;96123.19;4944141;29;20113;-78
2022/01/19 12:07:52;;;;;;;16.70;6.63;;;;;;;2.75;46.39;96117.63;4955403;29;20058;-79
2022/01/19 12:10:19;;;;;;;21.80;6.90;;;;;;;2.67;46.40;96115.03;4949036;29;20023;-79
2022/01/19 12:12:57;;;;;;;15.88;7.53;;;;;;;2.57;47.05;96109.19;4947427;29;20589;-79
2022/01/19 12:15:51;;;;;;;22.67;7.82;;;;;;;2.52;47.14;96101.13;4917893;29;20040;-79
2022/01/19 12:18:36;;;;;;;13.30;8.40;;;;;;;2.57;47.33;96106.59;4932558;29;20067;-79
2022/01/19 12:21:01;;;;;;;16.85;8.20;;;;;;;2.64;47.21;96110.19;4928777;29;20043;-79
2022/01/19 12:23:27;;;;;;;21.17;7.88;;;;;;;2.65;47.71;96096.41;4930482;29;20106;-79
2022/01/19 12:25:57;;;;;;;18.40;8.13;;;;;;;2.70;47.38;96099.31;4913079;29;20039;-79
2022/01/19 12:28:48;;;;;;;19.27;8.52;;;;;;;2.81;47.20;96091.38;4947885;29;20094;-78
2022/01/19 12:31:26;;;;;;;21.42;7.57;;;;;;;2.92;47.13;96093.66;4945543;29;20032;-81
2022/01/19 12:34:07;;;;;;;20.77;8.27;;;;;;;2.98;46.83;96093.06;4947791;29;20619;-80
2022/01/19 12:36:54;;;;;;;14.23;7.40;;;;;;;3.01;46.63;96097.88;4951528;29;20053;-82
2022/01/19 12:39:25;;;;;;;20.92;7.85;;;;;;;2.95;46.68;96093.38;4946235;29;20035;-81
2022/01/19 12:41:58;;;;;;;17.63;7.47;;;;;;;2.93;46.54;96087.59;4952559;29;20031;-81
2022/01/19 12:44:45;;;;;;;14.52;7.78;;;;;;;2.83;47.21;96076.59;4948384;29;20039;-80
2022/01/19 12:47:26;;;;;;;19.98;7.65;;;;;;;2.84;47.18;96074.84;4930746;29;20042;-81
2022/01/19 12:49:52;;;;;;;17.60;8.70;;;;;;;2.83;47.45;96074.03;4950717;29;20571;-81
2022/01/19 12:52:18;;;;;;;16.00;7.43;;;;;;;2.80;47.05;96070.97;4948410;29;20083;-80
2022/01/19 12:54:43;;;;;;;21.17;8.95;;;;;;;2.77;47.53;96061.00;4899803;29;20047;-81
2022/01/19 12:57:15;;;;;;;16.70;7.28;;;;;;;2.78;47.25;96055.72;4939920;29;20035;-82
2022/01/19 12:59:44;;;;;;;15.65;7.47;;;;;;;2.71;47.65;96054.69;4937550;29;20032;-82